Lake City, Arkansas
Current Conditions -  °F | °C
As of 1:53 AM on Friday 19 Dec 2014 (Local Time) from KJBR Reporting Station
Overcast Overcast  
Wind Chill: 34°   Ceiling: 3800
Heat Index: 39°   Visibility: 8mi
Dew Point: 36°   Wind: 7mph
Humidity: 89%   Direction: 30°NNE
Pressure: 30.25"   Gusts: NA
Location:  35.82°N, 90.43°W
Report Text: KJBR 190753Z AUTO 03006KT 8SM OVC038 04/02 A3025 RMK AO2 SLP243 T00390022
Loading
Personal Weather Stations






























Interactive Weather Map New forecast layout! Learn more

10-Day Weather Forecast

Advertisements
Track Severe Weather on mobile